Time;durP1;ratioP1;P1;durP2;ratioP2;P2;SDS_P1;SDS_P2;PMS_P1;PMS_P2;Temp;Humidity;BMP_temperature;BMP_pressure;BME280_temperature;BME280_humidity;BME280_pressure;Samples;Min_cycle;Max_cycle;Signal;HPM_P1;HPM_P2
2021/08/01 00:01:02;;;;;;;10.83;9.73;;;16.40;99.90;;;;;;4938298;29;20430;-70
2021/08/01 00:03:28;;;;;;;11.07;9.97;;;16.50;99.90;;;;;;4937821;29;20472;-71
2021/08/01 00:05:53;;;;;;;8.87;8.17;;;16.50;99.90;;;;;;4936568;29;20414;-70
2021/08/01 00:08:19;;;;;;;10.20;9.17;;;16.60;99.90;;;;;;4937874;29;20178;-71
2021/08/01 00:10:44;;;;;;;9.80;8.80;;;16.70;99.90;;;;;;4938124;29;20504;-70
2021/08/01 00:13:10;;;;;;;9.97;8.97;;;16.80;99.90;;;;;;4948645;29;20236;-70
2021/08/01 00:15:35;;;;;;;9.85;8.85;;;16.80;99.90;;;;;;4937622;29;20417;-70
2021/08/01 00:18:02;;;;;;;9.20;8.30;;;16.90;99.90;;;;;;4937845;29;20175;-70
2021/08/01 00:20:28;;;;;;;9.67;8.67;;;16.90;99.90;;;;;;4938138;29;20194;-70
2021/08/01 00:22:54;;;;;;;13.13;11.87;;;17.00;99.90;;;;;;4937058;29;20488;-71
2021/08/01 00:25:19;;;;;;;12.40;11.20;;;16.80;99.90;;;;;;4937281;29;20414;-69
2021/08/01 00:27:45;;;;;;;12.60;11.40;;;16.80;99.90;;;;;;4937506;29;20633;-70
2021/08/01 00:30:11;;;;;;;10.40;9.40;;;16.80;99.90;;;;;;4937864;29;20556;-71
2021/08/01 00:32:37;;;;;;;9.70;8.80;;;16.80;99.90;;;;;;4937256;29;20198;-69
2021/08/01 00:35:04;;;;;;;9.80;8.90;;;16.80;99.90;;;;;;4937493;29;20910;-69
2021/08/01 00:37:29;;;;;;;10.30;9.30;;;16.70;99.90;;;;;;4937727;29;20481;-69
2021/08/01 00:39:55;;;;;;;10.40;8.83;;;16.70;99.90;;;;;;4937214;29;20414;-71
2021/08/01 00:42:20;;;;;;;10.63;9.52;;;16.60;99.90;;;;;;4937270;29;20364;-69
2021/08/01 00:44:46;;;;;;;10.40;9.40;;;16.60;99.90;;;;;;4937057;29;20173;-70
2021/08/01 00:47:12;;;;;;;10.73;9.70;;;16.60;99.90;;;;;;4937547;29;20198;-71
2021/08/01 00:49:39;;;;;;;13.02;11.73;;;16.60;99.90;;;;;;4936060;29;20460;-69
2021/08/01 00:52:05;;;;;;;10.20;9.30;;;16.60;99.90;;;;;;4936769;29;20174;-71
2021/08/01 00:54:32;;;;;;;13.23;9.47;;;16.60;99.90;;;;;;4937118;29;20472;-71
2021/08/01 00:57:00;;;;;;;9.17;8.37;;;16.70;99.90;;;;;;4936800;29;20171;-71
2021/08/01 00:59:26;;;;;;;10.07;8.87;;;16.80;99.90;;;;;;4937061;29;20429;-71
2021/08/01 01:01:57;;;;;;;8.53;7.70;;;16.90;99.90;;;;;;4937306;29;20923;-69
2021/08/01 01:04:30;;;;;;;8.73;7.93;;;16.90;99.90;;;;;;4937060;29;20305;-70
2021/08/01 01:07:18;;;;;;;9.37;8.47;;;17.00;99.90;;;;;;4936977;29;20450;-70
2021/08/01 01:09:59;;;;;;;8.77;7.87;;;16.90;99.90;;;;;;4936979;29;20489;-70
2021/08/01 01:12:34;;;;;;;9.23;8.40;;;16.90;99.90;;;;;;4937198;29;20915;-70
2021/08/01 01:15:02;;;;;;;9.60;8.70;;;16.80;99.90;;;;;;4936817;29;20456;-70
2021/08/01 01:17:31;;;;;;;10.60;8.63;;;16.80;99.90;;;;;;4936609;29;20209;-70
2021/08/01 01:20:28;;;;;;;9.52;8.63;;;16.70;99.90;;;;;;4936782;29;20840;-70
2021/08/01 01:23:25;;;;;;;10.80;9.30;;;16.80;99.90;;;;;;4936709;29;20214;-70
2021/08/01 01:26:02;;;;;;;10.23;9.20;;;16.60;99.90;;;;;;4936504;29;20394;-70
2021/08/01 01:28:57;;;;;;;12.47;10.47;;;16.50;99.90;;;;;;4936534;29;20508;-70
2021/08/01 01:31:35;;;;;;;10.97;9.90;;;16.40;99.90;;;;;;4936357;29;20413;-70
2021/08/01 01:34:10;;;;;;;12.53;10.23;;;16.40;99.90;;;;;;4936700;29;20812;-70
2021/08/01 01:36:39;;;;;;;10.87;9.73;;;16.40;99.90;;;;;;4936856;29;20529;-70
2021/08/01 01:39:06;;;;;;;12.40;9.80;;;16.50;99.90;;;;;;4936771;29;20890;-70
2021/08/01 01:41:33;;;;;;;10.10;9.10;;;16.60;99.90;;;;;;4935957;29;20461;-70
2021/08/01 01:44:00;;;;;;;10.10;9.10;;;16.70;99.90;;;;;;4936880;29;20465;-70
2021/08/01 01:46:27;;;;;;;10.30;9.20;;;16.80;99.90;;;;;;4936229;29;20425;-70
2021/08/01 01:48:54;;;;;;;9.67;8.67;;;16.90;99.90;;;;;;4936464;29;20842;-70
2021/08/01 01:51:20;;;;;;;10.07;9.07;;;16.90;99.90;;;;;;4936488;29;20406;-70
2021/08/01 01:53:46;;;;;;;12.38;10.20;;;16.90;99.90;;;;;;4935413;29;20425;-70
2021/08/01 01:56:13;;;;;;;9.87;8.87;;;16.90;99.90;;;;;;4936183;29;20198;-70
2021/08/01 01:58:39;;;;;;;11.40;9.57;;;16.90;99.90;;;;;;4936211;29;20502;-70
2021/08/01 02:01:04;;;;;;;10.17;9.00;;;16.90;99.90;;;;;;4936048;29;20414;-70
2021/08/01 02:03:30;;;;;;;9.10;8.20;;;17.00;99.90;;;;;;4936335;29;20462;-70
2021/08/01 02:05:55;;;;;;;9.80;8.70;;;17.10;99.90;;;;;;4936107;29;20663;-70
2021/08/01 02:08:21;;;;;;;9.87;8.93;;;17.20;99.90;;;;;;4936039;29;20243;-70
2021/08/01 02:10:59;;;;;;;10.00;9.00;;;17.20;99.90;;;;;;4936118;29;20249;-69
2021/08/01 02:13:30;;;;;;;11.50;9.97;;;17.20;99.90;;;;;;4935828;29;20300;-70
2021/08/01 02:15:59;;;;;;;12.13;9.63;;;17.20;99.90;;;;;;4936018;29;20980;-70
2021/08/01 02:18:30;;;;;;;9.80;8.37;;;17.20;99.90;;;;;;4936162;29;20414;-70
2021/08/01 02:20:57;;;;;;;11.90;10.70;;;17.30;99.90;;;;;;4935753;29;20418;-71
2021/08/01 02:23:25;;;;;;;11.93;10.70;;;17.30;99.90;;;;;;4936499;29;20209;-69
2021/08/01 02:25:52;;;;;;;10.97;9.87;;;17.20;99.90;;;;;;4935857;29;20433;-70
2021/08/01 02:28:20;;;;;;;13.57;10.53;;;17.20;99.90;;;;;;4936912;29;20446;-70
2021/08/01 02:30:47;;;;;;;11.63;10.00;;;17.10;99.90;;;;;;4939846;29;20818;-69
2021/08/01 02:33:13;;;;;;;11.90;10.60;;;17.20;99.90;;;;;;4939816;29;20521;-71
2021/08/01 02:35:39;;;;;;;12.73;10.50;;;17.10;99.90;;;;;;4940059;29;20927;-70
2021/08/01 02:38:05;;;;;;;11.70;9.50;;;17.10;99.90;;;;;;4939174;29;20410;-70
2021/08/01 02:40:36;;;;;;;12.07;10.40;;;17.20;99.90;;;;;;4939980;29;20421;-70
2021/08/01 02:43:08;;;;;;;9.90;8.83;;;17.10;99.90;;;;;;4939497;29;20457;-70
2021/08/01 02:45:34;;;;;;;11.80;10.37;;;17.20;99.90;;;;;;4939503;29;20406;-70
2021/08/01 02:48:02;;;;;;;12.10;11.00;;;17.20;99.90;;;;;;4939397;29;20919;-70
2021/08/01 02:50:31;;;;;;;12.80;11.50;;;17.20;99.90;;;;;;4938743;29;20430;-70
2021/08/01 02:53:00;;;;;;;13.80;10.90;;;17.20;99.90;;;;;;4939035;29;21011;-70
2021/08/01 02:55:28;;;;;;;11.73;10.60;;;17.20;99.90;;;;;;4939299;29;20418;-70
2021/08/01 02:57:54;;;;;;;13.03;11.60;;;17.20;99.90;;;;;;4939524;29;20481;-70
2021/08/01 03:00:20;;;;;;;13.80;12.40;;;17.20;99.90;;;;;;4938980;29;20422;-70
2021/08/01 03:02:48;;;;;;;13.03;11.73;;;17.00;99.90;;;;;;4942147;29;20201;-71
2021/08/01 03:05:14;;;;;;;13.50;12.10;;;16.90;99.90;;;;;;4939116;29;20394;-70
2021/08/01 03:07:40;;;;;;;13.60;11.80;;;16.90;99.90;;;;;;4939398;29;20927;-70
2021/08/01 03:10:06;;;;;;;12.90;11.60;;;16.90;99.90;;;;;;4939526;29;20410;-70
2021/08/01 03:12:37;;;;;;;12.33;11.13;;;17.00;99.90;;;;;;4938508;29;20426;-71
2021/08/01 03:15:03;;;;;;;12.10;10.17;;;17.10;99.90;;;;;;4939556;29;20493;-70
2021/08/01 03:17:28;;;;;;;12.10;10.87;;;17.10;99.90;;;;;;4939529;29;20782;-70
2021/08/01 03:19:54;;;;;;;15.17;11.80;;;17.20;99.90;;;;;;4939483;29;20250;-69
2021/08/01 03:22:19;;;;;;;12.77;11.40;;;17.20;99.90;;;;;;4940817;29;20281;-70
2021/08/01 03:24:45;;;;;;;12.37;11.10;;;17.20;99.90;;;;;;4941267;29;20629;-70
2021/08/01 03:27:10;;;;;;;14.70;11.85;;;17.10;99.90;;;;;;4946553;29;20348;-70
2021/08/01 03:29:36;;;;;;;14.10;11.20;;;17.10;99.90;;;;;;4939268;29;20183;-70
2021/08/01 03:32:01;;;;;;;14.13;12.83;;;17.10;99.90;;;;;;4922749;29;20708;-70
2021/08/01 03:34:27;;;;;;;14.20;12.10;;;17.10;99.90;;;;;;4938855;29;20179;-70
2021/08/01 03:36:53;;;;;;;14.00;12.50;;;17.00;99.90;;;;;;4938607;29;20171;-70
2021/08/01 03:39:18;;;;;;;14.73;11.57;;;17.00;99.90;;;;;;4938317;29;20178;-70
2021/08/01 03:41:45;;;;;;;14.50;13.00;;;17.10;99.90;;;;;;4938701;29;20817;-70
2021/08/01 03:44:11;;;;;;;15.60;12.70;;;17.00;99.90;;;;;;4938034;29;20195;-70
2021/08/01 03:46:37;;;;;;;16.77;13.50;;;17.00;99.90;;;;;;4938807;29;20414;-70
2021/08/01 03:49:02;;;;;;;18.00;14.97;;;17.10;99.90;;;;;;4937815;29;20430;-70
2021/08/01 03:51:28;;;;;;;18.33;14.73;;;17.00;99.90;;;;;;4938328;29;20179;-70
2021/08/01 03:53:53;;;;;;;16.00;14.30;;;17.00;99.90;;;;;;4938469;29;20198;-70
2021/08/01 03:56:19;;;;;;;15.73;14.00;;;17.10;99.90;;;;;;4938017;29;20178;-70
2021/08/01 03:58:44;;;;;;;16.93;15.33;;;17.10;99.90;;;;;;4938273;29;20174;-69
2021/08/01 04:01:12;;;;;;;17.50;15.03;;;17.10;99.90;;;;;;4938037;29;20214;-70
2021/08/01 04:03:38;;;;;;;17.60;15.70;;;17.00;99.90;;;;;;4937762;29;20208;-70
2021/08/01 04:06:05;;;;;;;16.97;15.17;;;17.10;99.90;;;;;;4938052;29;20748;-70
2021/08/01 04:08:30;;;;;;;15.40;13.80;;;17.00;99.90;;;;;;4938338;29;20182;-70
2021/08/01 04:10:56;;;;;;;16.80;15.00;;;17.10;99.90;;;;;;4938030;29;20417;-70
2021/08/01 04:13:21;;;;;;;15.67;14.13;;;17.10;99.90;;;;;;4937575;29;20281;-70
2021/08/01 04:15:47;;;;;;;16.50;14.70;;;17.20;99.90;;;;;;4937877;29;20265;-70
2021/08/01 04:18:12;;;;;;;17.13;15.43;;;17.20;99.90;;;;;;4938292;29;20174;-70
2021/08/01 04:20:38;;;;;;;16.83;15.07;;;17.10;99.90;;;;;;4920776;29;20174;-70
2021/08/01 04:23:03;;;;;;;16.90;14.97;;;17.10;99.90;;;;;;4937590;29;20210;-70
2021/08/01 04:25:29;;;;;;;16.73;15.00;;;17.10;99.90;;;;;;4937107;29;20190;-70
2021/08/01 04:27:54;;;;;;;15.67;14.07;;;17.10;99.90;;;;;;4937701;29;20170;-70
2021/08/01 04:30:20;;;;;;;16.37;14.63;;;17.20;99.90;;;;;;4937468;29;20175;-70
2021/08/01 04:32:45;;;;;;;18.30;15.17;;;17.10;99.90;;;;;;4938497;29;20205;-70
2021/08/01 04:35:11;;;;;;;19.40;16.27;;;17.10;99.90;;;;;;4937643;29;20184;-70
2021/08/01 04:37:36;;;;;;;16.53;14.50;;;17.10;99.90;;;;;;4937151;29;20178;-70
2021/08/01 04:40:02;;;;;;;16.00;14.40;;;17.10;99.90;;;;;;4938150;29;20174;-70
2021/08/01 04:42:28;;;;;;;16.73;14.60;;;17.10;99.90;;;;;;4937612;29;20603;-70
2021/08/01 04:44:53;;;;;;;16.43;14.73;;;17.10;99.90;;;;;;4937579;29;20485;-70
2021/08/01 04:47:19;;;;;;;15.73;14.17;;;17.10;99.90;;;;;;4937033;29;20197;-69
2021/08/01 04:49:44;;;;;;;17.33;15.50;;;17.00;99.90;;;;;;4937339;29;20222;-69
2021/08/01 04:52:17;;;;;;;17.20;14.83;;;16.90;99.90;;;;;;4936607;29;20528;-69
2021/08/01 04:54:43;;;;;;;16.00;14.03;;;16.90;99.90;;;;;;4937326;29;20174;-69
2021/08/01 04:57:09;;;;;;;15.40;13.80;;;17.00;99.90;;;;;;4937413;29;20429;-68
2021/08/01 04:59:34;;;;;;;15.67;14.07;;;17.00;99.90;;;;;;4937026;29;20425;-69
2021/08/01 05:02:01;;;;;;;16.80;14.17;;;17.00;99.90;;;;;;4936868;29;20422;-69
2021/08/01 05:04:27;;;;;;;16.37;14.70;;;16.90;99.90;;;;;;4936919;29;20237;-69
2021/08/01 05:06:53;;;;;;;15.70;14.20;;;16.90;99.90;;;;;;4937873;29;20497;-69
2021/08/01 05:09:18;;;;;;;16.60;13.50;;;16.90;99.90;;;;;;4936789;29;20888;-69
2021/08/01 05:11:44;;;;;;;15.20;13.70;;;16.90;99.90;;;;;;4936860;29;20228;-69
2021/08/01 05:14:09;;;;;;;16.13;13.70;;;16.90;99.90;;;;;;4936919;29;20304;-71
2021/08/01 05:16:35;;;;;;;14.90;13.43;;;16.90;99.90;;;;;;4938238;29;20174;-70
2021/08/01 05:19:01;;;;;;;16.27;12.60;;;17.00;99.90;;;;;;4937597;29;20178;-69
2021/08/01 05:21:26;;;;;;;13.23;11.90;;;17.00;99.90;;;;;;4937808;29;20186;-71
2021/08/01 05:23:52;;;;;;;15.37;13.70;;;17.10;99.90;;;;;;4937271;29;20265;-70
2021/08/01 05:26:18;;;;;;;12.47;11.20;;;17.10;99.90;;;;;;4936291;29;20217;-70
2021/08/01 05:28:43;;;;;;;13.60;11.63;;;17.10;99.90;;;;;;4936740;29;20178;-70
2021/08/01 05:31:09;;;;;;;12.50;11.10;;;17.20;99.90;;;;;;4936807;29;20573;-70
2021/08/01 05:33:34;;;;;;;12.23;11.00;;;17.20;99.90;;;;;;4937236;29;20217;-70
2021/08/01 05:36:10;;;;;;;13.20;11.90;;;17.10;99.90;;;;;;4937224;29;20640;-70
2021/08/01 05:38:37;;;;;;;12.83;11.40;;;17.10;99.90;;;;;;4945914;29;20181;-70
2021/08/01 05:41:03;;;;;;;12.23;11.03;;;17.10;99.90;;;;;;4937011;29;20424;-71
2021/08/01 05:43:28;;;;;;;11.97;10.77;;;17.00;99.90;;;;;;4936284;29;20473;-70
2021/08/01 05:45:54;;;;;;;12.77;11.50;;;16.90;99.90;;;;;;4936339;29;20190;-70
2021/08/01 05:48:20;;;;;;;11.07;9.97;;;17.00;99.90;;;;;;4936383;29;20636;-71
2021/08/01 05:50:45;;;;;;;14.02;12.63;;;16.90;99.90;;;;;;4936189;29;20453;-70
2021/08/01 05:53:11;;;;;;;12.83;11.50;;;17.00;99.90;;;;;;4936721;29;20218;-71
2021/08/01 05:55:36;;;;;;;13.23;11.17;;;17.10;99.90;;;;;;4936406;29;20181;-70
2021/08/01 05:58:02;;;;;;;12.20;10.93;;;17.10;99.90;;;;;;4936397;29;20179;-70
2021/08/01 06:00:27;;;;;;;12.50;11.30;;;17.10;99.90;;;;;;4936364;29;20690;-71
2021/08/01 06:02:53;;;;;;;14.27;12.73;;;17.20;99.90;;;;;;4938453;29;20206;-70
2021/08/01 06:05:19;;;;;;;14.33;12.90;;;17.10;99.90;;;;;;4939988;29;20170;-69
2021/08/01 06:07:45;;;;;;;14.77;12.53;;;17.10;99.90;;;;;;4940500;29;20412;-70
2021/08/01 06:10:11;;;;;;;15.00;12.30;;;17.00;99.90;;;;;;4940182;29;20166;-70
2021/08/01 06:12:36;;;;;;;13.97;12.53;;;17.00;99.90;;;;;;4939778;29;20206;-70
2021/08/01 06:15:02;;;;;;;14.87;13.17;;;17.10;99.90;;;;;;4940004;29;20410;-69
2021/08/01 06:17:28;;;;;;;15.25;13.65;;;17.10;99.90;;;;;;4947986;29;20768;-69
2021/08/01 06:19:55;;;;;;;15.13;13.30;;;17.10;99.90;;;;;;4939842;29;20206;-69
2021/08/01 06:22:21;;;;;;;14.68;13.20;;;17.30;99.90;;;;;;4939793;29;20420;-69
2021/08/01 06:24:47;;;;;;;13.63;12.23;;;17.30;99.90;;;;;;4939504;29;20234;-69
2021/08/01 06:27:12;;;;;;;14.57;13.13;;;17.30;99.90;;;;;;4939945;29;20444;-70
2021/08/01 06:29:38;;;;;;;13.23;11.90;;;17.40;99.90;;;;;;4940006;29;20250;-70
2021/08/01 06:32:04;;;;;;;15.70;14.10;;;17.40;99.90;;;;;;4939646;29;20178;-69
2021/08/01 06:34:29;;;;;;;16.97;15.20;;;17.50;99.90;;;;;;4939743;29;20174;-69
2021/08/01 06:36:55;;;;;;;17.03;15.23;;;17.50;99.90;;;;;;4939832;29;20209;-71
2021/08/01 06:39:20;;;;;;;18.40;16.47;;;17.60;99.90;;;;;;4940295;29;20171;-69
2021/08/01 06:41:46;;;;;;;19.90;17.80;;;17.60;99.90;;;;;;4948385;29;20190;-71
2021/08/01 06:44:11;;;;;;;20.53;18.37;;;17.70;99.90;;;;;;4939718;29;20210;-70
2021/08/01 06:46:37;;;;;;;21.40;19.27;;;17.70;99.90;;;;;;4939838;29;20170;-70
2021/08/01 06:49:02;;;;;;;19.63;17.63;;;17.70;99.90;;;;;;4939330;29;20192;-70
2021/08/01 06:51:28;;;;;;;22.27;19.87;;;17.90;99.90;;;;;;4939401;29;20195;-70
2021/08/01 06:53:53;;;;;;;23.97;20.17;;;17.90;99.90;;;;;;4939398;29;20206;-70
2021/08/01 06:56:20;;;;;;;24.17;21.67;;;17.80;99.90;;;;;;4938750;29;20413;-70
2021/08/01 06:58:45;;;;;;;22.37;19.37;;;18.00;99.90;;;;;;4939565;29;20190;-70
2021/08/01 07:01:12;;;;;;;20.83;18.13;;;17.80;99.90;;;;;;4939043;29;20433;-70
2021/08/01 07:03:37;;;;;;;18.87;16.70;;;17.80;99.90;;;;;;4939140;29;20315;-70
2021/08/01 07:06:03;;;;;;;17.83;15.80;;;17.90;99.90;;;;;;4938979;29;20513;-70
2021/08/01 07:08:28;;;;;;;17.53;14.40;;;17.90;99.90;;;;;;4939790;29;20639;-70
2021/08/01 07:10:53;;;;;;;16.43;12.67;;;18.00;99.90;;;;;;4938988;29;20206;-70
2021/08/01 07:13:19;;;;;;;16.73;13.70;;;18.00;99.90;;;;;;4938961;29;20228;-70
2021/08/01 07:15:45;;;;;;;13.77;12.37;;;18.10;99.90;;;;;;4938884;29;20171;-70
2021/08/01 07:18:10;;;;;;;13.60;11.67;;;18.20;99.90;;;;;;4921875;29;20600;-71
2021/08/01 07:20:36;;;;;;;11.90;10.80;;;18.20;99.90;;;;;;4938607;29;20198;-69
2021/08/01 07:23:02;;;;;;;13.67;10.70;;;18.20;99.90;;;;;;4939010;29;20260;-69
2021/08/01 07:25:27;;;;;;;11.63;9.83;;;18.20;99.90;;;;;;4940694;29;20534;-69
2021/08/01 07:27:54;;;;;;;11.27;9.90;;;18.20;99.90;;;;;;4940079;29;20526;-69
2021/08/01 07:30:20;;;;;;;12.83;9.90;;;18.30;99.90;;;;;;4939568;29;20176;-69
2021/08/01 07:32:46;;;;;;;9.73;8.00;;;18.40;99.90;;;;;;4938982;29;20943;-70
2021/08/01 07:35:12;;;;;;;9.17;7.30;;;18.50;99.90;;;;;;4938592;29;20491;-70
2021/08/01 07:37:37;;;;;;;8.73;7.87;;;18.50;99.90;;;;;;4938850;29;20182;-70
2021/08/01 07:40:04;;;;;;;9.30;7.97;;;18.60;99.90;;;;;;4938167;29;20501;-70
2021/08/01 07:42:29;;;;;;;10.40;7.20;;;18.60;99.90;;;;;;4938856;29;20221;-70
2021/08/01 07:45:00;;;;;;;7.90;6.90;;;18.60;99.90;;;;;;4938364;29;21062;-70
2021/08/01 07:47:27;;;;;;;9.40;6.97;;;18.70;99.90;;;;;;4921460;29;20664;-70
2021/08/01 07:49:52;;;;;;;7.03;6.00;;;18.70;99.90;;;;;;4938556;29;20410;-70
2021/08/01 07:52:19;;;;;;;8.73;6.23;;;18.70;99.90;;;;;;4939506;29;20437;-70
2021/08/01 07:54:46;;;;;;;7.40;5.60;;;18.60;99.90;;;;;;4939275;29;20206;-70
2021/08/01 07:57:24;;;;;;;5.67;5.17;;;18.70;99.90;;;;;;4938533;29;20414;-70
2021/08/01 07:59:50;;;;;;;5.55;5.05;;;18.70;99.90;;;;;;4938422;29;20504;-70
2021/08/01 08:02:16;;;;;;;5.30;4.80;;;18.70;99.90;;;;;;4938453;29;20224;-70
2021/08/01 08:04:41;;;;;;;8.37;4.20;;;18.70;99.90;;;;;;4938202;29;20450;-71
2021/08/01 08:07:07;;;;;;;5.77;4.57;;;18.70;99.90;;;;;;4938622;29;20221;-70
2021/08/01 08:09:32;;;;;;;4.20;3.83;;;18.70;99.90;;;;;;4938087;29;20194;-70
2021/08/01 08:11:58;;;;;;;5.23;4.17;;;18.90;99.90;;;;;;4938228;29;20257;-70
2021/08/01 08:14:23;;;;;;;4.60;3.57;;;19.00;99.90;;;;;;4933681;29;20201;-70
2021/08/01 08:16:49;;;;;;;6.37;3.70;;;19.20;99.90;;;;;;4932571;29;20633;-71
2021/08/01 08:19:14;;;;;;;5.63;3.67;;;19.50;99.90;;;;;;4928030;29;20202;-71
2021/08/01 08:21:40;;;;;;;4.63;3.43;;;19.40;99.90;;;;;;4922024;29;20186;-71
2021/08/01 08:24:06;;;;;;;5.43;3.40;;;19.40;99.90;;;;;;4919792;29;20218;-69
2021/08/01 08:26:31;;;;;;;5.30;3.33;;;19.40;99.90;;;;;;4919165;29;20175;-69
2021/08/01 08:28:57;;;;;;;7.13;4.30;;;19.40;99.90;;;;;;4919683;29;20230;-71
2021/08/01 08:31:22;;;;;;;6.23;3.90;;;19.40;99.90;;;;;;4948160;29;20210;-70
2021/08/01 08:33:51;;;;;;;4.63;4.00;;;19.40;99.90;;;;;;4958052;29;20181;-70
2021/08/01 08:36:16;;;;;;;3.80;3.50;;;19.30;99.90;;;;;;4945803;29;20663;-70
2021/08/01 08:38:42;;;;;;;4.75;3.80;;;19.40;99.90;;;;;;4937355;29;20426;-70
2021/08/01 08:41:13;;;;;;;4.20;3.80;;;19.60;99.90;;;;;;4938376;29;20579;-71
2021/08/01 08:43:39;;;;;;;7.83;4.50;;;19.80;99.90;;;;;;4936663;29;20691;-71
2021/08/01 08:46:05;;;;;;;7.33;3.73;;;19.80;99.90;;;;;;4935532;29;20426;-71
2021/08/01 08:48:32;;;;;;;4.27;3.87;;;19.80;99.90;;;;;;4936613;29;20186;-70
2021/08/01 08:50:57;;;;;;;4.53;4.13;;;19.80;99.90;;;;;;4937604;29;20470;-70
2021/08/01 08:53:26;;;;;;;4.43;4.03;;;19.90;99.90;;;;;;4938031;29;20492;-70
2021/08/01 08:55:53;;;;;;;4.80;4.10;;;19.80;99.90;;;;;;4937564;29;20528;-70
2021/08/01 08:58:26;;;;;;;5.63;4.97;;;19.90;99.90;;;;;;4936745;29;20489;-71
2021/08/01 09:00:52;;;;;;;5.60;5.03;;;19.80;99.90;;;;;;4936896;29;21237;-70
2021/08/01 09:03:18;;;;;;;8.50;6.20;;;19.60;99.90;;;;;;4936145;29;20457;-70
2021/08/01 09:05:44;;;;;;;5.67;4.70;;;19.70;99.90;;;;;;4936102;29;20536;-70
2021/08/01 09:08:10;;;;;;;7.77;6.00;;;19.70;99.90;;;;;;4934261;29;20430;-70
2021/08/01 09:10:35;;;;;;;5.70;5.20;;;19.90;99.90;;;;;;4935497;29;20413;-69
2021/08/01 09:13:02;;;;;;;4.70;4.30;;;20.00;99.90;;;;;;4936591;29;20230;-69
2021/08/01 09:15:28;;;;;;;6.50;4.93;;;20.30;99.90;;;;;;4936589;29;20994;-71
2021/08/01 09:17:56;;;;;;;7.13;5.60;;;20.50;99.90;;;;;;4936660;29;20208;-70
2021/08/01 09:20:28;;;;;;;5.57;4.90;;;20.80;99.90;;;;;;4936034;29;20900;-70
2021/08/01 09:22:59;;;;;;;7.00;6.00;;;20.70;99.90;;;;;;4936235;29;20458;-70
2021/08/01 09:25:29;;;;;;;5.20;4.77;;;20.60;99.90;;;;;;4936993;29;20413;-70
2021/08/01 09:28:18;;;;;;;6.10;5.50;;;20.80;99.90;;;;;;4938550;29;20418;-70
2021/08/01 09:31:01;;;;;;;6.77;6.07;;;20.50;99.90;;;;;;4947853;29;20453;-70
2021/08/01 09:33:41;;;;;;;7.37;6.33;;;20.30;99.90;;;;;;4937424;29;20520;-70
2021/08/01 09:36:18;;;;;;;6.80;6.20;;;20.30;99.90;;;;;;4936753;29;20879;-70
2021/08/01 09:38:57;;;;;;;6.10;5.50;;;20.40;99.90;;;;;;4935697;29;20409;-70
2021/08/01 09:41:37;;;;;;;6.27;4.77;;;20.40;99.90;;;;;;4937014;29;20186;-70
2021/08/01 09:44:08;;;;;;;10.17;5.50;;;20.60;99.90;;;;;;4936333;29;20465;-70
2021/08/01 09:46:38;;;;;;;8.73;5.80;;;20.90;99.90;;;;;;4935870;29;20433;-69
2021/08/01 09:49:09;;;;;;;6.10;5.50;;;20.60;99.90;;;;;;4936822;29;20421;-70
2021/08/01 09:51:58;;;;;;;6.33;5.80;;;20.30;99.90;;;;;;4937875;29;20425;-70
2021/08/01 09:54:26;;;;;;;6.33;5.10;;;19.60;99.90;;;;;;4938436;29;20944;-70
2021/08/01 09:56:55;;;;;;;6.60;5.90;;;19.50;99.90;;;;;;4944897;29;20787;-70
2021/08/01 09:59:26;;;;;;;6.37;5.83;;;19.50;99.90;;;;;;4938983;29;20465;-70
2021/08/01 10:01:54;;;;;;;5.63;5.13;;;19.50;99.90;;;;;;4938189;29;20433;-70
2021/08/01 10:04:23;;;;;;;6.50;5.67;;;19.60;99.90;;;;;;4935750;29;20465;-70
2021/08/01 10:07:26;;;;;;;6.13;5.27;;;19.80;99.90;;;;;;4934903;29;20430;-70
2021/08/01 10:09:51;;;;;;;6.63;5.70;;;19.90;99.90;;;;;;4896216;29;20427;-70
2021/08/01 10:12:17;;;;;;;6.22;5.63;;;19.90;99.90;;;;;;4880044;29;20855;-70
2021/08/01 10:14:43;;;;;;;6.40;5.80;;;19.80;99.90;;;;;;4895593;29;20310;-70
2021/08/01 10:17:08;;;;;;;5.90;5.40;;;19.80;99.90;;;;;;4896634;29;20197;-70
2021/08/01 10:19:35;;;;;;;7.27;6.10;;;20.00;99.90;;;;;;4897303;29;20199;-70
2021/08/01 10:22:03;;;;;;;5.47;4.97;;;20.00;99.90;;;;;;4897239;29;20196;-70
2021/08/01 10:24:31;;;;;;;6.20;5.60;;;20.20;99.90;;;;;;4892913;29;20510;-70
2021/08/01 10:27:03;;;;;;;6.40;5.47;;;20.40;99.90;;;;;;4879833;29;20432;-70
2021/08/01 10:29:50;;;;;;;7.27;5.30;;;20.30;99.90;;;;;;4896688;29;20488;-69
2021/08/01 10:32:19;;;;;;;7.50;5.07;;;20.40;99.90;;;;;;4895871;29;20431;-70
2021/08/01 10:35:05;;;;;;;7.13;5.80;;;20.70;99.90;;;;;;4895047;29;20420;-70
2021/08/01 10:37:31;;;;;;;6.53;5.93;;;20.70;99.90;;;;;;4895182;29;20518;-70
2021/08/01 10:40:01;;;;;;;6.60;6.10;;;20.50;99.90;;;;;;4895118;29;20424;-70
2021/08/01 10:42:28;;;;;;;6.67;5.60;;;20.10;99.90;;;;;;4879735;29;20482;-71
2021/08/01 10:44:54;;;;;;;6.97;6.28;;;20.00;99.90;;;;;;4929833;29;20539;-70
2021/08/01 10:47:20;;;;;;;6.17;5.37;;;19.90;99.90;;;;;;4935119;29;20178;-70
2021/08/01 10:49:48;;;;;;;7.00;5.60;;;19.90;99.90;;;;;;4937030;29;20181;-70
2021/08/01 10:52:17;;;;;;;7.67;6.03;;;19.80;99.90;;;;;;4937215;29;20438;-70
2021/08/01 10:54:55;;;;;;;8.70;5.97;;;19.80;99.90;;;;;;4938151;29;20545;-70
2021/08/01 10:57:22;;;;;;;6.93;6.33;;;20.00;99.90;;;;;;4938735;29;20418;-71
2021/08/01 10:59:47;;;;;;;6.17;5.57;;;20.20;99.90;;;;;;4938371;29;20429;-71
2021/08/01 11:02:15;;;;;;;7.37;5.53;;;20.10;99.90;;;;;;4938541;29;20426;-71
2021/08/01 11:04:43;;;;;;;6.50;5.30;;;20.00;99.90;;;;;;4938885;29;20201;-70
2021/08/01 11:07:09;;;;;;;5.33;4.83;;;20.10;99.90;;;;;;4938955;29;20410;-70
2021/08/01 11:09:35;;;;;;;5.87;5.00;;;20.30;99.60;;;;;;4938188;29;20750;-70
2021/08/01 11:12:18;;;;;;;4.57;3.90;;;20.40;99.20;;;;;;4937016;29;20217;-70
2021/08/01 11:14:53;;;;;;;6.07;4.27;;;20.50;99.00;;;;;;4938270;29;20205;-70
2021/08/01 11:17:19;;;;;;;5.10;4.60;;;20.70;98.80;;;;;;4938897;29;20549;-70
2021/08/01 11:19:45;;;;;;;4.27;3.87;;;20.80;98.60;;;;;;4939581;29;20550;-70
2021/08/01 11:22:38;;;;;;;5.25;4.78;;;20.90;98.50;;;;;;4937879;29;20429;-70
2021/08/01 11:25:31;;;;;;;6.93;4.90;;;20.90;97.90;;;;;;4927444;29;20202;-71
2021/08/01 11:28:19;;;;;;;5.63;4.80;;;20.90;97.30;;;;;;4939191;29;20500;-70
2021/08/01 11:30:53;;;;;;;7.53;4.53;;;21.00;97.50;;;;;;4938305;29;20410;-71
2021/08/01 11:33:38;;;;;;;5.63;5.03;;;20.90;98.30;;;;;;4938229;29;20429;-70
2021/08/01 11:36:13;;;;;;;4.80;4.37;;;21.00;98.90;;;;;;4938468;29;20418;-70
2021/08/01 11:38:58;;;;;;;3.80;3.50;;;21.10;98.60;;;;;;4937835;29;20433;-70
2021/08/01 11:41:35;;;;;;;4.33;3.93;;;21.00;97.30;;;;;;4938062;29;20919;-70
2021/08/01 11:44:17;;;;;;;4.77;3.80;;;21.00;97.40;;;;;;4937920;29;20492;-70
2021/08/01 11:46:50;;;;;;;4.50;3.80;;;21.10;97.70;;;;;;4938063;29;20418;-70
2021/08/01 11:49:43;;;;;;;5.68;5.10;;;21.20;97.90;;;;;;4919345;29;20500;-70
2021/08/01 11:52:10;;;;;;;6.20;5.60;;;21.20;97.90;;;;;;4931738;29;20194;-70
2021/08/01 11:54:41;;;;;;;5.90;5.35;;;20.80;98.20;;;;;;4935120;29;20965;-70
2021/08/01 11:57:09;;;;;;;6.20;4.90;;;20.70;98.90;;;;;;4935879;29;20329;-70
2021/08/01 11:59:35;;;;;;;4.87;4.23;;;20.70;98.50;;;;;;4935539;29;20453;-70
2021/08/01 12:02:06;;;;;;;6.27;4.50;;;20.70;98.70;;;;;;4935415;29;20453;-72
2021/08/01 12:04:31;;;;;;;4.90;3.97;;;20.80;98.20;;;;;;4936140;29;20638;-70
2021/08/01 12:06:57;;;;;;;4.47;4.07;;;20.90;98.10;;;;;;4937836;29;20438;-71
2021/08/01 12:09:30;;;;;;;5.00;4.00;;;21.00;98.10;;;;;;4938403;29;20229;-70
2021/08/01 12:11:58;;;;;;;6.17;4.13;;;21.10;97.80;;;;;;4937818;29;20182;-70
2021/08/01 12:14:34;;;;;;;5.73;4.63;;;21.10;97.70;;;;;;4937523;29;20968;-70
2021/08/01 12:17:11;;;;;;;4.83;3.63;;;21.30;97.90;;;;;;4937436;29;20418;-70
2021/08/01 12:19:42;;;;;;;5.77;4.40;;;21.50;97.90;;;;;;4937856;29;20860;-71
2021/08/01 12:22:09;;;;;;;4.20;3.93;;;21.30;97.10;;;;;;4937726;29;20419;-71
2021/08/01 12:24:46;;;;;;;4.80;4.30;;;21.10;97.40;;;;;;4937330;29;20955;-70
2021/08/01 12:27:20;;;;;;;3.83;3.53;;;21.10;97.60;;;;;;4937592;29;20406;-70
2021/08/01 12:29:56;;;;;;;5.13;4.40;;;21.20;97.70;;;;;;4938046;29;20410;-71
2021/08/01 12:32:42;;;;;;;4.10;3.77;;;21.00;98.40;;;;;;4937610;29;20425;-70
2021/08/01 12:35:15;;;;;;;6.03;4.33;;;20.80;99.10;;;;;;4938016;29;20927;-70
2021/08/01 12:37:49;;;;;;;4.50;4.10;;;20.80;99.10;;;;;;4938254;29;20427;-70
2021/08/01 12:40:28;;;;;;;6.83;5.57;;;20.80;99.20;;;;;;4937959;29;20449;-70
2021/08/01 12:43:00;;;;;;;4.80;4.37;;;20.90;99.00;;;;;;4940608;29;20857;-70
2021/08/01 12:45:34;;;;;;;5.03;4.63;;;20.80;98.90;;;;;;4947640;29;20417;-70